createdAt,value
2022-08-18T00:00:15.244Z,89.69
2022-08-18T00:01:10.981Z,89.59
2022-08-18T00:02:10.874Z,89.59
2022-08-18T00:03:27.111Z,89.99
2022-08-18T00:04:35.901Z,89.59
2022-08-18T00:05:10.915Z,89.79
2022-08-18T00:06:10.778Z,90.19
2022-08-18T00:07:10.918Z,90.09
2022-08-18T00:08:10.837Z,89.99
2022-08-18T00:09:10.727Z,90.19
2022-08-18T00:10:18.777Z,90.29
2022-08-18T00:11:10.928Z,90.69
2022-08-18T00:12:10.757Z,90.49
2022-08-18T00:13:10.917Z,90.59
2022-08-18T00:14:10.837Z,91.30
2022-08-18T00:15:10.647Z,90.59
2022-08-18T00:16:10.778Z,90.53
2022-08-18T00:17:10.937Z,91.54
2022-08-18T00:18:10.766Z,91.94
2022-08-18T00:19:10.616Z,91.85
2022-08-18T00:20:10.657Z,91.74
2022-08-18T00:21:10.614Z,91.85
2022-08-18T00:22:14.902Z,91.85
2022-08-18T00:23:10.602Z,91.54
2022-08-18T00:24:10.763Z,91.54
2022-08-18T00:25:10.592Z,92.45
2022-08-18T00:26:10.579Z,92.45
2022-08-18T00:27:10.606Z,92.55
2022-08-18T00:28:10.477Z,92.25
2022-08-18T00:29:10.596Z,92.35
2022-08-18T00:30:10.457Z,92.95
2022-08-18T00:31:10.598Z,92.65
2022-08-18T00:32:10.506Z,92.85
2022-08-18T00:33:10.606Z,92.65
2022-08-18T00:34:10.446Z,92.85
2022-08-18T00:35:10.377Z,93.30
2022-08-18T00:36:10.442Z,94.00
2022-08-18T00:37:10.422Z,94.20
2022-08-18T00:38:25.037Z,93.80
2022-08-18T00:39:10.601Z,93.30
2022-08-18T00:40:10.540Z,92.65
2022-08-18T00:41:10.302Z,92.55
2022-08-18T00:42:10.443Z,92.75
2022-08-18T00:43:10.341Z,92.55
2022-08-18T00:44:10.271Z,92.45
2022-08-18T00:45:10.288Z,92.14
2022-08-18T00:46:10.247Z,93.05
2022-08-18T00:47:10.288Z,93.10
2022-08-18T00:48:10.439Z,93.30
2022-08-18T00:49:10.356Z,93.10
2022-08-18T00:50:12.499Z,93.50
2022-08-18T00:51:10.278Z,93.80
2022-08-18T00:52:10.166Z,93.80
2022-08-18T00:53:10.287Z,93.50
2022-08-18T00:54:10.216Z,93.65
2022-08-18T00:55:10.151Z,94.05
2022-08-18T00:56:10.121Z,94.45
2022-08-18T00:57:10.289Z,94.95
2022-08-18T00:58:10.133Z,94.95
2022-08-18T00:59:10.081Z,94.75
2022-08-18T01:00:10.214Z,94.75
2022-08-18T01:01:10.080Z,95.00
2022-08-18T01:02:10.131Z,94.90
2022-08-18T01:03:10.021Z,95.00
2022-08-18T01:04:10.111Z,95.10
2022-08-18T01:05:10.013Z,95.10
2022-08-18T01:06:10.216Z,95.40
2022-08-18T01:07:09.976Z,95.30
2022-08-18T01:08:10.139Z,95.40
2022-08-18T01:09:09.966Z,95.81
2022-08-18T01:10:10.117Z,95.20
2022-08-18T01:11:09.957Z,95.61
2022-08-18T01:12:44.876Z,95.50
2022-08-18T01:13:09.976Z,95.61
2022-08-18T01:14:09.867Z,95.81
2022-08-18T01:15:09.975Z,95.61
2022-08-18T01:16:09.871Z,95.61
2022-08-18T01:17:10.042Z,95.61
2022-08-18T01:18:09.851Z,95.36
2022-08-18T01:19:09.978Z,95.36
2022-08-18T01:20:09.801Z,95.06
2022-08-18T01:21:09.792Z,94.55
2022-08-18T01:22:09.873Z,94.55
2022-08-18T01:23:09.755Z,94.55
2022-08-18T01:24:09.793Z,94.65
2022-08-18T01:25:09.757Z,94.55
2022-08-18T01:26:09.805Z,94.75
2022-08-18T01:27:09.967Z,95.46
2022-08-18T01:28:09.798Z,95.46
2022-08-18T01:29:09.702Z,95.66
2022-08-18T01:30:09.810Z,95.40
2022-08-18T01:31:09.966Z,95.20
2022-08-18T01:32:09.656Z,95.61
2022-08-18T01:33:09.636Z,95.81
2022-08-18T01:34:09.668Z,95.61
2022-08-18T01:35:09.660Z,96.01
2022-08-18T01:36:09.600Z,95.81
2022-08-18T01:37:09.640Z,95.40
2022-08-18T01:38:09.571Z,96.06
2022-08-18T01:39:09.651Z,95.70
2022-08-18T01:41:11.035Z,95.30
2022-08-18T01:41:31.371Z,95.30
2022-08-18T01:42:09.914Z,95.50
2022-08-18T01:43:09.640Z,95.81
2022-08-18T01:44:09.480Z,96.11
2022-08-18T01:45:09.536Z,96.31
2022-08-18T01:46:09.509Z,95.90
2022-08-18T01:47:09.635Z,95.90
2022-08-18T01:48:09.485Z,95.61
2022-08-18T01:49:09.425Z,95.50
2022-08-18T01:50:09.485Z,95.61
2022-08-18T01:51:09.456Z,96.01
2022-08-18T01:52:09.496Z,95.61
2022-08-18T01:53:09.636Z,95.50
2022-08-18T01:54:09.478Z,95.90
2022-08-18T01:55:09.392Z,96.31
2022-08-18T01:56:09.341Z,96.11
2022-08-18T01:57:09.391Z,96.11
2022-08-18T01:58:09.472Z,96.41
2022-08-18T01:59:09.321Z,96.11
2022-08-18T02:00:09.491Z,95.81
2022-08-18T02:01:09.322Z,95.81
2022-08-18T02:02:09.348Z,95.90
2022-08-18T02:03:09.396Z,96.01
2022-08-18T02:04:33.842Z,96.31
2022-08-18T02:05:09.321Z,96.21
2022-08-18T02:06:09.215Z,96.11
2022-08-18T02:07:09.185Z,96.11
2022-08-18T02:08:09.225Z,96.51
2022-08-18T02:09:09.317Z,96.21
2022-08-18T02:10:11.793Z,96.45
2022-08-18T02:11:09.327Z,96.56
2022-08-18T02:12:09.177Z,96.66
2022-08-18T02:13:09.377Z,96.41
2022-08-18T02:14:09.177Z,96.31
2022-08-18T02:15:09.320Z,96.31
2022-08-18T02:16:09.221Z,96.21
2022-08-18T02:17:09.343Z,96.21
2022-08-18T02:18:09.200Z,96.51
2022-08-18T02:19:09.109Z,96.86
2022-08-18T02:20:09.022Z,96.76
2022-08-18T02:21:10.351Z,96.56
2022-08-18T02:22:09.163Z,97.06
2022-08-18T02:23:09.002Z,97.27
2022-08-18T02:24:09.220Z,97.36
2022-08-18T02:25:09.041Z,97.16
2022-08-18T02:26:09.176Z,96.96
2022-08-18T02:27:09.049Z,96.76
2022-08-18T02:28:08.896Z,96.76
2022-08-18T02:29:08.995Z,96.76
2022-08-18T02:30:08.986Z,96.66
2022-08-18T02:31:08.998Z,96.56
2022-08-18T02:32:08.916Z,96.76
2022-08-18T02:33:09.016Z,96.56
2022-08-18T02:34:08.896Z,96.56
2022-08-18T02:35:11.554Z,96.56
2022-08-18T02:36:08.880Z,96.25
2022-08-18T02:37:13.107Z,96.15
2022-08-18T02:38:08.842Z,96.25
2022-08-18T02:39:08.750Z,96.56
2022-08-18T02:40:08.939Z,96.21
2022-08-18T02:41:08.801Z,96.11
2022-08-18T02:42:08.862Z,96.21
2022-08-18T02:43:08.701Z,95.90
2022-08-18T02:44:08.861Z,95.70
2022-08-18T02:45:08.670Z,95.50
2022-08-18T02:46:08.656Z,95.40
2022-08-18T02:47:09.017Z,95.26
2022-08-18T02:48:08.624Z,94.95
2022-08-18T02:49:08.679Z,94.75
2022-08-18T02:50:08.836Z,93.85
2022-08-18T02:51:08.677Z,94.00
2022-08-18T02:52:08.595Z,94.00
2022-08-18T02:53:09.016Z,94.10
2022-08-18T02:54:08.536Z,94.00
2022-08-18T02:55:08.539Z,93.80
2022-08-18T02:56:08.541Z,93.19
2022-08-18T02:57:08.700Z,93.10
2022-08-18T02:58:08.521Z,92.99
2022-08-18T02:59:08.770Z,93.50
2022-08-18T03:00:08.532Z,93.90
2022-08-18T03:01:08.551Z,93.70
2022-08-18T03:02:08.520Z,94.20
2022-08-18T03:03:08.702Z,94.00
2022-08-18T03:04:08.530Z,94.00
2022-08-18T03:05:08.481Z,93.90
2022-08-18T03:06:08.525Z,93.70
2022-08-18T03:07:08.392Z,93.40
2022-08-18T03:08:08.368Z,93.10
2022-08-18T03:09:08.364Z,93.10
2022-08-18T03:10:32.959Z,93.60
2022-08-18T03:11:08.365Z,93.40
2022-08-18T03:12:08.306Z,93.40
2022-08-18T03:13:08.355Z,93.40
2022-08-18T03:14:08.731Z,93.19
2022-08-18T03:15:08.428Z,93.40
2022-08-18T03:16:08.260Z,93.90
2022-08-18T03:17:08.381Z,93.60
2022-08-18T03:18:08.231Z,92.99
2022-08-18T03:19:08.380Z,93.10
2022-08-18T03:20:08.202Z,93.40
2022-08-18T03:21:08.430Z,93.60
2022-08-18T03:22:28.555Z,93.70
2022-08-18T03:23:09.754Z,93.40
2022-08-18T03:24:10.696Z,93.60
2022-08-18T03:25:08.122Z,93.90
2022-08-18T03:26:08.307Z,93.95
2022-08-18T03:27:08.116Z,94.45
2022-08-18T03:28:08.196Z,94.35
2022-08-18T03:29:08.075Z,94.25
2022-08-18T03:30:11.304Z,94.45
2022-08-18T03:31:08.035Z,94.15
2022-08-18T03:32:08.266Z,93.95
2022-08-18T03:33:08.035Z,94.15
2022-08-18T03:34:08.197Z,94.00
2022-08-18T03:35:08.037Z,94.00
2022-08-18T03:36:08.000Z,93.74
2022-08-18T03:37:08.131Z,94.45
2022-08-18T03:38:08.220Z,94.45
2022-08-18T03:39:08.042Z,94.75
2022-08-18T03:40:08.296Z,94.35
2022-08-18T03:41:08.031Z,94.25
2022-08-18T03:42:08.222Z,94.25
2022-08-18T03:43:49.600Z,94.75
2022-08-18T03:44:07.882Z,94.45
2022-08-18T03:45:13.340Z,94.35
2022-08-18T03:46:07.872Z,94.05
2022-08-18T03:47:08.052Z,93.65
2022-08-18T03:48:07.896Z,94.75
2022-08-18T03:49:07.875Z,94.55
2022-08-18T03:50:07.876Z,94.75
2022-08-18T03:51:08.036Z,94.75
2022-08-18T03:52:07.878Z,93.85
2022-08-18T03:53:07.755Z,93.74
2022-08-18T03:54:07.876Z,93.54
2022-08-18T03:55:07.788Z,93.85
2022-08-18T03:56:07.725Z,94.35
2022-08-18T03:57:07.723Z,94.25
2022-08-18T03:58:07.710Z,93.65
2022-08-18T03:59:07.727Z,93.65
2022-08-18T04:00:07.745Z,92.94
2022-08-18T04:01:07.791Z,93.65
2022-08-18T04:02:07.880Z,92.63
2022-08-18T04:03:07.719Z,92.19
2022-08-18T04:04:07.616Z,92.09
2022-08-18T04:05:07.711Z,91.44
2022-08-18T04:06:12.482Z,91.64
2022-08-18T04:07:07.725Z,90.64
2022-08-18T04:08:07.589Z,89.39
2022-08-18T04:09:07.714Z,88.84
2022-08-18T04:10:07.565Z,87.79
2022-08-18T04:11:07.736Z,87.19
2022-08-18T04:12:07.559Z,86.74
2022-08-18T04:13:07.512Z,86.04
2022-08-18T04:14:07.555Z,85.70
2022-08-18T04:15:07.488Z,85.30
2022-08-18T04:16:07.566Z,85.16
2022-08-18T04:17:07.792Z,84.35
2022-08-18T04:18:07.866Z,83.85
2022-08-18T04:19:07.461Z,83.51
2022-08-18T04:20:07.572Z,83.11
2022-08-18T04:21:07.401Z,82.51
2022-08-18T04:22:07.460Z,82.06
2022-08-18T04:23:07.419Z,82.46
2022-08-18T04:24:07.582Z,81.96
2022-08-18T04:25:07.421Z,82.06
2022-08-18T04:26:07.560Z,81.87
2022-08-18T04:27:07.497Z,81.56
2022-08-18T04:28:07.555Z,81.26
2022-08-18T04:29:07.406Z,81.67
2022-08-18T04:30:07.295Z,81.87
2022-08-18T04:31:09.208Z,82.26
2022-08-18T04:32:07.247Z,81.36
2022-08-18T04:33:07.465Z,81.02
2022-08-18T04:34:07.233Z,81.62
2022-08-18T04:35:10.090Z,80.92
2022-08-18T04:36:07.235Z,81.32
2022-08-18T04:37:07.421Z,81.32
2022-08-18T04:38:07.310Z,81.52
2022-08-18T04:39:07.172Z,81.23
2022-08-18T04:40:07.337Z,81.32
2022-08-18T04:41:07.140Z,81.12
2022-08-18T04:42:07.251Z,80.92
2022-08-18T04:43:07.100Z,82.03
2022-08-18T04:44:07.140Z,81.82
2022-08-18T04:45:07.061Z,81.42
2022-08-18T04:46:07.234Z,80.82
2022-08-18T04:47:07.086Z,81.23
2022-08-18T04:48:07.234Z,81.73
2022-08-18T04:49:07.107Z,80.92
2022-08-18T04:50:07.075Z,81.52
2022-08-18T04:51:07.076Z,81.42
2022-08-18T04:52:22.575Z,82.03
2022-08-18T04:53:07.096Z,81.93
2022-08-18T04:54:07.238Z,81.42
2022-08-18T04:55:07.136Z,81.12
2022-08-18T04:56:06.945Z,81.56
2022-08-18T04:57:07.101Z,82.06
2022-08-18T04:58:06.930Z,83.27
2022-08-18T04:59:07.080Z,82.26
2022-08-18T05:00:07.023Z,82.87
2022-08-18T05:01:07.167Z,83.47
2022-08-18T05:02:10.235Z,83.07
2022-08-18T05:03:06.850Z,83.27
2022-08-18T05:04:06.911Z,84.17
2022-08-18T05:05:06.811Z,82.37
2022-08-18T05:06:07.005Z,81.87
2022-08-18T05:07:06.794Z,81.56
2022-08-18T05:08:06.917Z,81.42
2022-08-18T05:09:06.758Z,80.72
2022-08-18T05:10:06.926Z,82.59
2022-08-18T05:11:06.756Z,80.58
2022-08-18T05:12:06.942Z,80.98
2022-08-18T05:13:06.755Z,81.85
2022-08-18T05:14:06.684Z,81.24
2022-08-18T05:15:06.758Z,79.71
2022-08-18T05:16:11.654Z,78.77
2022-08-18T05:17:06.771Z,77.89
2022-08-18T05:18:06.729Z,75.18
2022-08-18T05:19:06.750Z,74.58
2022-08-18T05:20:06.600Z,72.71
2022-08-18T05:21:06.760Z,70.95
2022-08-18T05:22:06.600Z,69.89
2022-08-18T05:23:06.640Z,68.73
2022-08-18T05:24:06.605Z,68.10
2022-08-18T05:25:06.530Z,65.95
2022-08-18T05:26:06.535Z,65.03
2022-08-18T05:27:06.535Z,64.37
2022-08-18T05:28:06.595Z,62.93
2022-08-18T05:29:18.969Z,60.30
2022-08-18T05:30:06.596Z,59.45
2022-08-18T05:31:08.628Z,58.33
2022-08-18T05:32:06.595Z,58.11
2022-08-18T05:33:06.435Z,56.21
2022-08-18T05:34:06.488Z,56.30
2022-08-18T05:35:06.451Z,56.01
2022-08-18T05:36:06.420Z,56.18
2022-08-18T05:37:06.439Z,56.25
2022-08-18T05:38:06.380Z,55.14
2022-08-18T05:39:06.363Z,54.35
2022-08-18T05:40:11.016Z,53.91
2022-08-18T05:41:06.444Z,53.22
2022-08-18T05:42:06.579Z,53.12
2022-08-18T05:43:06.440Z,53.39
2022-08-18T05:44:06.300Z,51.64
2022-08-18T05:45:06.529Z,53.29
2022-08-18T05:46:06.284Z,51.98
2022-08-18T05:47:06.275Z,52.25
2022-08-18T05:48:06.276Z,51.93
2022-08-18T05:49:06.427Z,51.74
2022-08-18T05:50:06.358Z,51.45
2022-08-18T05:51:06.437Z,51.03
2022-08-18T05:52:06.275Z,51.59
2022-08-18T05:53:13.320Z,51.10
2022-08-18T05:54:06.281Z,49.68
2022-08-18T05:55:06.239Z,49.36
2022-08-18T05:56:06.300Z,49.53
2022-08-18T05:57:06.150Z,49.14
2022-08-18T05:58:06.130Z,48.85
2022-08-18T05:59:06.130Z,48.26
2022-08-18T06:00:06.280Z,49.33
2022-08-18T06:01:06.189Z,49.90
2022-08-18T06:02:06.071Z,50.10
2022-08-18T06:03:06.139Z,48.43
2022-08-18T06:04:06.289Z,47.92
2022-08-18T06:05:06.130Z,47.82
2022-08-18T06:06:06.086Z,47.57
2022-08-18T06:07:06.125Z,48.65
2022-08-18T06:08:06.274Z,47.89
2022-08-18T06:09:06.116Z,50.29
2022-08-18T06:10:05.966Z,49.87
2022-08-18T06:11:06.141Z,46.82
2022-08-18T06:12:06.040Z,47.63
2022-08-18T06:13:05.944Z,47.77
2022-08-18T06:14:05.973Z,47.17
2022-08-18T06:15:06.407Z,46.17
2022-08-18T06:16:05.971Z,46.07
2022-08-18T06:17:06.188Z,46.34
2022-08-18T06:18:05.971Z,46.53
2022-08-18T06:19:05.853Z,46.26
2022-08-18T06:20:05.946Z,47.31
2022-08-18T06:21:05.844Z,47.11
2022-08-18T06:22:05.956Z,47.28
2022-08-18T06:23:05.885Z,46.99
2022-08-18T06:24:05.796Z,46.92
2022-08-18T06:25:05.785Z,47.21
2022-08-18T06:26:05.964Z,47.60
2022-08-18T06:27:05.797Z,48.38
2022-08-18T06:28:05.734Z,47.38
2022-08-18T06:29:05.888Z,47.36
2022-08-18T06:30:05.971Z,47.67
2022-08-18T06:31:05.810Z,46.70
2022-08-18T06:32:05.699Z,46.70
2022-08-18T06:33:05.790Z,46.58
2022-08-18T06:34:06.024Z,46.78
2022-08-18T06:35:05.660Z,46.26
2022-08-18T06:36:05.641Z,46.46
2022-08-18T06:37:05.804Z,46.17
2022-08-18T06:38:05.636Z,45.68
2022-08-18T06:39:05.795Z,46.44
2022-08-18T06:40:05.744Z,45.34
2022-08-18T06:41:05.604Z,45.29
2022-08-18T06:42:05.656Z,45.95
2022-08-18T06:43:05.565Z,44.85
2022-08-18T06:44:05.646Z,45.10
2022-08-18T06:45:05.780Z,45.47
2022-08-18T06:46:05.709Z,44.18
2022-08-18T06:47:05.542Z,44.06
2022-08-18T06:48:05.653Z,43.67
2022-08-18T06:49:05.800Z,43.67
2022-08-18T06:50:05.489Z,46.96
2022-08-18T06:51:05.821Z,42.97
2022-08-18T06:52:05.461Z,43.65
2022-08-18T06:53:05.470Z,42.66
2022-08-18T06:54:05.656Z,44.33
2022-08-18T06:55:05.486Z,44.20
2022-08-18T06:56:05.476Z,45.88
2022-08-18T06:57:05.465Z,44.97
2022-08-18T06:58:05.396Z,45.34
2022-08-18T06:59:05.475Z,45.71
2022-08-18T07:00:05.635Z,44.19
2022-08-18T07:01:05.621Z,45.00
2022-08-18T07:02:05.455Z,45.51
2022-08-18T07:03:05.339Z,45.92
2022-08-18T07:04:05.299Z,47.31
2022-08-18T07:05:05.321Z,46.57
2022-08-18T07:06:05.332Z,47.14
2022-08-18T07:07:05.553Z,46.55
2022-08-18T07:08:05.321Z,48.16
2022-08-18T07:09:05.270Z,49.04
2022-08-18T07:10:05.320Z,49.95
2022-08-18T07:11:05.496Z,50.66
2022-08-18T07:12:05.335Z,49.99
2022-08-18T07:13:05.306Z,51.39
2022-08-18T07:14:16.174Z,53.09
2022-08-18T07:15:05.476Z,51.32
2022-08-18T07:16:05.325Z,51.96
2022-08-18T07:17:05.156Z,51.59
2022-08-18T07:18:05.331Z,51.81
2022-08-18T07:19:05.236Z,54.03
2022-08-18T07:20:05.140Z,52.72
2022-08-18T07:21:05.187Z,53.09
2022-08-18T07:22:05.340Z,52.08
2022-08-18T07:23:08.084Z,52.42
2022-08-18T07:24:23.671Z,52.59
2022-08-18T07:25:05.701Z,50.22
2022-08-18T07:26:05.050Z,51.79
2022-08-18T07:27:05.150Z,49.60
2022-08-18T07:28:05.036Z,49.85
2022-08-18T07:29:05.016Z,50.22
2022-08-18T07:30:05.084Z,49.14
2022-08-18T07:31:16.442Z,49.51
2022-08-18T07:32:04.997Z,49.11
2022-08-18T07:33:05.169Z,49.60
2022-08-18T07:34:05.006Z,49.21
2022-08-18T07:35:05.167Z,49.51
2022-08-18T07:36:05.065Z,49.33
2022-08-18T07:37:04.928Z,48.38
2022-08-18T07:38:24.687Z,50.20
2022-08-18T07:39:05.449Z,51.91
2022-08-18T07:40:05.099Z,52.25
2022-08-18T07:41:05.053Z,51.91
2022-08-18T07:42:05.082Z,53.16
2022-08-18T07:43:04.876Z,52.87
2022-08-18T07:44:07.534Z,51.03
2022-08-18T07:45:04.856Z,52.53
2022-08-18T07:46:04.995Z,52.43
2022-08-18T07:47:04.848Z,52.50
2022-08-18T07:48:20.823Z,53.78
2022-08-18T07:49:05.550Z,53.78
2022-08-18T07:50:31.335Z,53.41
2022-08-18T07:51:08.539Z,53.70
2022-08-18T07:52:04.714Z,53.93
2022-08-18T07:53:04.855Z,54.74
2022-08-18T07:54:04.791Z,54.57
2022-08-18T07:55:04.841Z,56.30
2022-08-18T07:56:04.680Z,57.32
2022-08-18T07:57:04.840Z,56.85
2022-08-18T07:58:04.688Z,58.63
2022-08-18T07:59:04.926Z,58.65
2022-08-18T08:00:04.717Z,58.29
2022-08-18T08:01:04.651Z,58.09
2022-08-18T08:02:04.725Z,58.91
2022-08-18T08:03:04.595Z,59.33
2022-08-18T08:04:04.695Z,59.46
2022-08-18T08:05:04.657Z,62.01
2022-08-18T08:06:04.695Z,59.31
2022-08-18T08:08:04.675Z,58.00
2022-08-18T08:09:04.516Z,57.89
2022-08-18T08:10:04.699Z,58.36
2022-08-18T08:11:04.607Z,58.92
2022-08-18T08:12:04.480Z,57.12
2022-08-18T08:13:09.146Z,57.91
2022-08-18T08:14:04.450Z,57.61
2022-08-18T08:15:04.431Z,57.71
2022-08-18T08:16:04.409Z,57.61
2022-08-18T08:17:04.595Z,59.00
2022-08-18T08:18:04.402Z,58.53
2022-08-18T08:19:12.184Z,58.14
2022-08-18T08:20:04.386Z,59.15
2022-08-18T08:21:04.361Z,60.73
2022-08-18T08:22:04.447Z,59.18
2022-08-18T08:23:04.338Z,60.27
2022-08-18T08:24:04.355Z,61.05
2022-08-18T08:25:04.309Z,60.53
2022-08-18T08:26:04.354Z,60.31
2022-08-18T08:27:04.526Z,59.48
2022-08-18T08:28:04.456Z,56.54
2022-08-18T08:29:04.273Z,56.10
2022-08-18T08:30:04.362Z,56.24
2022-08-18T08:31:25.648Z,53.90
2022-08-18T08:32:04.371Z,52.20
2022-08-18T08:33:04.200Z,52.86
2022-08-18T08:34:06.099Z,53.13
2022-08-18T08:35:04.190Z,51.81
2022-08-18T08:36:04.175Z,52.59
2022-08-18T08:37:04.159Z,50.51
2022-08-18T08:38:17.443Z,49.82
2022-08-18T08:39:04.214Z,48.14
2022-08-18T08:40:04.271Z,48.60
2022-08-18T08:41:04.215Z,47.89
2022-08-18T08:42:29.711Z,48.36
2022-08-18T08:43:04.194Z,46.95
2022-08-18T08:44:04.045Z,47.73
2022-08-18T08:45:04.069Z,48.51
2022-08-18T08:46:04.121Z,45.68
2022-08-18T08:47:04.200Z,44.38
2022-08-18T08:48:08.780Z,44.73
2022-08-18T08:49:04.211Z,45.95
2022-08-18T08:50:04.040Z,45.15
2022-08-18T08:51:03.970Z,44.18
2022-08-18T08:52:04.021Z,43.01
2022-08-18T08:53:04.196Z,41.83
2022-08-18T08:54:04.035Z,42.91
2022-08-18T08:55:03.934Z,43.91
2022-08-18T08:56:04.035Z,45.61
2022-08-18T08:57:03.944Z,46.04
2022-08-18T08:58:03.964Z,46.00
2022-08-18T08:59:03.876Z,47.92
2022-08-18T09:00:04.035Z,47.72
2022-08-18T09:01:03.878Z,46.92
2022-08-18T09:02:03.977Z,48.28
2022-08-18T09:03:03.890Z,45.21
2022-08-18T09:04:04.119Z,44.12
2022-08-18T09:05:08.644Z,43.99
2022-08-18T09:06:04.040Z,44.85
2022-08-18T09:07:03.880Z,43.88
2022-08-18T09:08:03.771Z,43.74
2022-08-18T09:09:03.949Z,42.16
2022-08-18T09:10:04.066Z,44.20
2022-08-18T09:11:03.730Z,42.00
2022-08-18T09:12:03.715Z,43.44
2022-08-18T09:13:03.875Z,41.43
2022-08-18T09:14:03.836Z,39.49
2022-08-18T09:15:03.695Z,41.16
2022-08-18T09:16:13.769Z,41.22
2022-08-18T09:17:03.877Z,40.79
2022-08-18T09:18:03.720Z,41.86
2022-08-18T09:19:03.630Z,40.72
2022-08-18T09:20:03.819Z,41.01
2022-08-18T09:21:03.611Z,39.75
2022-08-18T09:22:03.604Z,40.42
2022-08-18T09:23:03.589Z,40.25
2022-08-18T09:24:03.570Z,40.44
2022-08-18T09:25:03.610Z,41.48
2022-08-18T09:26:03.725Z,41.93
2022-08-18T09:27:03.556Z,41.63
2022-08-18T09:28:11.710Z,44.74
2022-08-18T09:29:03.575Z,42.19
2022-08-18T09:30:03.516Z,40.44
2022-08-18T09:31:03.628Z,39.86
2022-08-18T09:32:03.480Z,40.73
2022-08-18T09:33:03.575Z,42.90
2022-08-18T09:34:09.715Z,41.26
2022-08-18T13:04:56.005Z,42.72
2022-08-18T13:05:01.336Z,49.65
2022-08-18T13:06:01.254Z,49.09
2022-08-18T13:07:06.052Z,50.85
2022-08-18T13:08:04.165Z,52.23
2022-08-18T13:09:01.200Z,52.84
2022-08-18T13:10:01.181Z,52.06
2022-08-18T13:11:15.374Z,49.02
2022-08-18T13:12:01.194Z,51.05
2022-08-18T13:13:01.151Z,50.78
2022-08-18T13:14:03.157Z,51.27
2022-08-18T13:15:01.109Z,50.88
2022-08-18T13:16:03.628Z,50.59
2022-08-18T13:17:01.314Z,50.88
2022-08-18T13:18:01.176Z,50.98
2022-08-18T13:19:01.077Z,50.20
2022-08-18T13:20:01.236Z,49.80
2022-08-18T13:21:01.036Z,50.49
2022-08-18T13:22:01.160Z,49.21
2022-08-18T13:23:00.995Z,50.42
2022-08-18T13:24:01.156Z,50.12
2022-08-18T13:25:01.012Z,50.12
2022-08-18T13:26:02.982Z,50.22
2022-08-18T13:27:01.001Z,50.02
2022-08-18T13:28:01.913Z,50.90
2022-08-18T13:29:01.013Z,51.27
2022-08-18T13:30:01.171Z,51.17
2022-08-18T13:31:01.001Z,50.09
2022-08-18T13:32:01.162Z,51.56
2022-08-18T13:33:06.100Z,50.49
2022-08-18T13:34:03.705Z,50.42
2022-08-18T13:35:02.739Z,50.71
2022-08-18T13:36:00.856Z,51.10
2022-08-18T13:37:00.997Z,50.81
2022-08-18T13:38:01.259Z,52.67
2022-08-18T13:39:00.999Z,52.67
2022-08-18T13:40:00.909Z,53.65
2022-08-18T13:41:01.055Z,54.14
2022-08-18T13:42:00.983Z,51.79
2022-08-18T13:43:01.021Z,51.98
2022-08-18T13:44:00.936Z,52.08
2022-08-18T13:45:23.237Z,51.39
2022-08-18T13:46:00.969Z,51.10
2022-08-18T13:47:00.712Z,50.51
2022-08-18T13:48:00.831Z,51.59
2022-08-18T13:49:00.671Z,52.76
2022-08-18T13:50:00.863Z,53.75
2022-08-18T13:51:01.271Z,52.96
2022-08-18T13:52:03.089Z,53.94
2022-08-18T13:53:00.664Z,52.80
2022-08-18T13:54:28.975Z,54.63
2022-08-18T13:55:00.639Z,54.44
2022-08-18T13:56:00.657Z,53.45
2022-08-18T13:57:00.679Z,52.67
2022-08-18T13:58:00.719Z,53.94
2022-08-18T13:59:00.575Z,53.26
2022-08-18T14:00:00.595Z,53.16
2022-08-18T14:02:00.764Z,52.76
2022-08-18T14:03:00.518Z,51.89
2022-08-18T14:04:00.524Z,52.08
2022-08-18T14:05:00.503Z,53.65
2022-08-18T14:06:01.574Z,52.18
2022-08-18T14:07:03.199Z,52.57
2022-08-18T14:08:00.603Z,54.83
2022-08-18T14:09:00.446Z,55.02
2022-08-18T14:10:04.489Z,53.97
2022-08-18T14:11:00.426Z,55.64
2022-08-18T14:12:00.610Z,54.27
2022-08-18T14:13:00.385Z,53.48
2022-08-18T14:14:00.367Z,54.78
2022-08-18T14:15:00.356Z,54.41
2022-08-18T14:16:00.558Z,55.10
2022-08-18T14:17:00.380Z,56.97
2022-08-18T14:18:00.381Z,56.90
2022-08-18T14:19:00.372Z,57.10
2022-08-18T14:20:00.293Z,57.29
2022-08-18T14:21:00.362Z,58.89
2022-08-18T14:22:00.352Z,58.43
2022-08-18T14:23:00.362Z,59.34
2022-08-18T14:24:00.234Z,58.46
2022-08-18T14:25:00.633Z,59.54
2022-08-18T14:26:00.453Z,61.15
2022-08-18T14:27:00.197Z,60.26
2022-08-18T14:28:03.864Z,61.27
2022-08-18T14:29:00.179Z,60.22
2022-08-18T14:30:00.348Z,61.21
2022-08-18T14:31:00.146Z,61.24
2022-08-18T14:32:00.196Z,58.30
2022-08-18T14:33:00.550Z,56.95
2022-08-18T14:34:03.932Z,57.28
2022-08-18T14:35:31.964Z,59.01
2022-08-18T14:36:06.498Z,60.03
2022-08-18T14:37:00.132Z,61.94
2022-08-18T14:38:00.221Z,64.24
2022-08-18T14:39:00.087Z,65.73
2022-08-18T14:40:00.388Z,67.64
2022-08-18T14:41:00.043Z,67.57
2022-08-18T14:42:03.028Z,68.30
2022-08-18T14:43:00.052Z,66.75
2022-08-18T14:44:13.453Z,65.39
2022-08-18T14:45:17.023Z,63.04
2022-08-18T14:45:59.950Z,63.64
2022-08-18T14:46:59.933Z,63.86
2022-08-18T14:48:00.005Z,65.98
2022-08-18T14:49:00.013Z,68.70
2022-08-18T14:49:59.951Z,69.43
2022-08-18T14:50:59.889Z,71.75
2022-08-18T14:51:59.879Z,71.69
2022-08-18T14:53:00.017Z,72.91
2022-08-18T14:53:59.928Z,70.72
2022-08-18T14:55:00.018Z,72.52
2022-08-18T14:55:59.859Z,71.62
2022-08-18T14:56:59.789Z,72.81
2022-08-18T14:57:59.917Z,73.11
2022-08-18T14:58:59.757Z,73.01
2022-08-18T14:59:59.861Z,74.60
2022-08-18T15:01:00.118Z,76.79
2022-08-18T15:01:59.852Z,76.70
2022-08-18T15:03:00.089Z,77.83
2022-08-18T15:03:59.756Z,78.73
2022-08-18T15:04:59.691Z,82.12
2022-08-18T15:05:59.651Z,79.06
2022-08-18T15:06:59.701Z,78.77
2022-08-18T15:07:59.636Z,79.86
2022-08-18T15:08:59.697Z,80.06
2022-08-18T15:10:15.547Z,80.36
2022-08-18T15:10:59.696Z,79.96
2022-08-18T15:11:59.585Z,81.26
2022-08-18T15:12:59.705Z,82.26
2022-08-18T15:13:59.585Z,82.20
2022-08-18T15:14:59.774Z,81.99
2022-08-18T15:16:01.879Z,82.29
2022-08-18T15:16:59.534Z,82.50
2022-08-18T15:17:59.539Z,82.29
2022-08-18T15:19:00.318Z,82.20
2022-08-18T15:20:01.383Z,83.29
2022-08-18T15:20:59.532Z,82.69
2022-08-18T15:21:59.530Z,81.79
2022-08-18T15:22:59.452Z,81.79
2022-08-18T15:23:59.521Z,80.30
2022-08-18T15:24:59.403Z,81.30
2022-08-18T15:25:59.557Z,80.20
2022-08-18T15:27:05.670Z,79.00
2022-08-18T15:27:59.382Z,79.60
2022-08-18T15:29:00.725Z,80.46
2022-08-18T15:29:59.539Z,79.76
2022-08-18T15:32:05.237Z,78.37
2022-08-18T15:32:59.462Z,77.77
2022-08-18T15:33:59.539Z,78.27
2022-08-18T15:34:59.377Z,77.37
2022-08-18T15:35:59.336Z,78.17
2022-08-18T15:37:09.562Z,77.47
2022-08-18T15:37:59.235Z,78.17
2022-08-18T15:38:59.217Z,78.17
2022-08-18T15:39:59.344Z,79.22
2022-08-18T15:40:59.376Z,79.03
2022-08-18T15:41:59.871Z,78.73
2022-08-18T15:42:59.184Z,79.33
2022-08-18T15:43:59.223Z,77.93
2022-08-18T15:44:59.383Z,77.53
2022-08-18T15:45:59.153Z,78.33
2022-08-18T15:46:59.114Z,76.83
2022-08-18T15:47:59.301Z,76.10
2022-08-18T15:48:59.092Z,77.29
2022-08-18T15:49:59.215Z,77.29
2022-08-18T15:51:11.564Z,77.46
2022-08-18T15:51:59.220Z,76.17
2022-08-18T15:52:59.062Z,77.26
2022-08-18T15:53:59.302Z,76.23
2022-08-18T15:55:02.303Z,74.84
2022-08-18T15:56:04.330Z,75.29
2022-08-18T15:56:59.061Z,76.09
2022-08-18T15:57:59.122Z,75.16
2022-08-18T15:59:00.613Z,72.47
2022-08-18T15:59:59.333Z,72.77
2022-08-18T16:00:59.151Z,72.64
2022-08-18T16:01:59.026Z,73.03
2022-08-18T16:02:59.078Z,73.03
2022-08-18T16:03:58.959Z,73.03
2022-08-18T16:05:01.021Z,72.20
2022-08-18T16:05:59.249Z,71.51
2022-08-18T16:06:59.072Z,70.02
2022-08-18T16:07:58.911Z,70.62
2022-08-18T16:08:58.833Z,70.81
2022-08-18T16:09:58.904Z,71.22
2022-08-18T16:10:59.086Z,70.55
2022-08-18T16:12:00.505Z,70.95
2022-08-18T16:12:58.804Z,71.75
2022-08-18T16:13:59.183Z,71.45
2022-08-18T16:14:58.821Z,72.24
2022-08-18T16:15:58.736Z,71.15
2022-08-18T16:16:58.757Z,71.34
2022-08-18T16:17:58.791Z,71.55
2022-08-18T16:18:58.763Z,70.98
2022-08-18T16:19:58.722Z,71.48
2022-08-18T16:20:58.842Z,71.68
2022-08-18T16:21:58.911Z,71.28
2022-08-18T16:22:58.763Z,71.58
2022-08-18T16:23:58.663Z,71.78